Time;durP1;ratioP1;P1;durP2;ratioP2;P2;SDS_P1;SDS_P2;PMS_P1;PMS_P2;Temp;Humidity;BMP_temperature;BMP_pressure;BME280_temperature;BME280_humidity;BME280_pressure;Samples;Min_cycle;Max_cycle;Signal;HPM_P1;HPM_P2
2021/03/08 00:00:17;;;;;;;39.88;36.38;;;0.70;82.80;;;;;;5096211;28;20234;-77
2021/03/08 00:02:43;;;;;;;41.22;37.58;;;0.60;81.30;;;;;;5096165;28;20202;-76
2021/03/08 00:05:13;;;;;;;40.00;36.60;;;0.60;80.50;;;;;;5096189;28;20657;-76
2021/03/08 00:07:40;;;;;;;38.78;35.50;;;0.60;80.00;;;;;;5096190;28;20201;-77
2021/03/08 00:10:07;;;;;;;41.03;37.78;;;0.70;79.50;;;;;;5095975;28;20232;-77
2021/03/08 00:12:34;;;;;;;40.38;36.97;;;0.60;79.70;;;;;;5096055;28;20252;-76
2021/03/08 00:15:00;;;;;;;39.63;36.30;;;0.50;79.80;;;;;;5096245;28;20203;-76
2021/03/08 00:17:26;;;;;;;39.65;36.67;;;0.50;79.60;;;;;;5095781;28;20195;-76
2021/03/08 00:19:53;;;;;;;41.08;37.60;;;0.50;79.40;;;;;;5095654;28;20558;-77
2021/03/08 00:22:20;;;;;;;41.70;38.20;;;0.50;79.50;;;;;;5095815;28;20260;-77
2021/03/08 00:24:46;;;;;;;409.75;82.82;;;0.50;79.70;;;;;;5095664;28;20195;-77
2021/03/08 00:27:13;;;;;;;40.58;37.00;;;0.50;88.30;;;;;;5095729;28;20619;-77
2021/03/08 00:29:40;;;;;;;39.08;36.00;;;0.40;85.00;;;;;;5095650;28;20211;-77
2021/03/08 00:32:08;;;;;;;40.08;36.78;;;0.40;82.40;;;;;;5095420;28;20197;-77
2021/03/08 00:34:35;;;;;;;38.45;35.45;;;0.40;82.10;;;;;;5095598;28;20195;-77
2021/03/08 00:37:01;;;;;;;38.78;35.40;;;0.40;80.90;;;;;;5095334;28;20210;-77
2021/03/08 00:39:29;;;;;;;38.30;35.00;;;0.40;80.40;;;;;;5095439;28;20306;-77
2021/03/08 00:41:55;;;;;;;38.10;34.60;;;0.40;80.00;;;;;;5095178;28;20211;-77
2021/03/08 00:44:21;;;;;;;37.53;34.22;;;0.40;79.80;;;;;;5095487;28;20204;-77
2021/03/08 00:46:48;;;;;;;37.25;34.25;;;0.40;79.50;;;;;;5094997;28;20282;-77
2021/03/08 00:49:14;;;;;;;39.33;35.92;;;0.40;81.80;;;;;;5095331;28;20223;-77
2021/03/08 00:51:40;;;;;;;39.10;35.88;;;0.40;80.30;;;;;;5095361;28;20281;-77
2021/03/08 00:54:07;;;;;;;39.80;36.53;;;0.30;79.70;;;;;;5095285;28;20202;-77
2021/03/08 00:56:34;;;;;;;39.10;35.80;;;0.20;79.70;;;;;;5094968;28;20196;-77
2021/03/08 00:59:00;;;;;;;39.80;36.30;;;0.20;79.90;;;;;;5095083;28;20271;-77
2021/03/08 01:01:27;;;;;;;39.00;35.80;;;0.30;79.40;;;;;;5094873;28;20271;-77
2021/03/08 01:03:53;;;;;;;39.00;35.60;;;0.30;79.00;;;;;;5094929;28;20207;-76
2021/03/08 01:06:19;;;;;;;38.55;35.50;;;0.30;78.90;;;;;;5094244;28;20191;-76
2021/03/08 01:08:46;;;;;;;39.08;35.53;;;0.30;78.90;;;;;;5094775;28;20727;-77
2021/03/08 01:11:12;;;;;;;38.80;35.67;;;0.10;81.40;;;;;;5094853;28;20191;-77
2021/03/08 01:13:39;;;;;;;38.80;35.70;;;0.00;82.10;;;;;;5094724;28;20217;-77
2021/03/08 01:16:06;;;;;;;37.60;34.60;;;0.00;81.00;;;;;;5094529;28;20207;-77
2021/03/08 01:18:32;;;;;;;38.03;34.95;;;0.00;80.30;;;;;;5094733;28;20215;-77
2021/03/08 01:20:58;;;;;;;38.47;35.38;;;0.10;80.10;;;;;;5094752;28;20658;-77
2021/03/08 01:23:25;;;;;;;38.05;35.13;;;0.10;79.60;;;;;;5094659;28;20333;-77
2021/03/08 01:25:52;;;;;;;38.88;35.85;;;0.00;79.60;;;;;;5094386;28;20232;-77
2021/03/08 01:28:19;;;;;;;36.67;33.70;;;-0.10;79.90;;;;;;5094435;28;20610;-76
2021/03/08 01:30:46;;;;;;;36.42;33.63;;;-0.10;80.00;;;;;;5094609;28;20191;-77
2021/03/08 01:33:13;;;;;;;37.60;34.53;;;0.00;79.80;;;;;;5094621;28;20294;-77
2021/03/08 01:35:40;;;;;;;37.05;34.03;;;-0.10;79.60;;;;;;5094253;28;20206;-77
2021/03/08 01:38:07;;;;;;;38.03;34.92;;;-0.10;79.50;;;;;;5094237;28;20199;-77
2021/03/08 01:40:38;;;;;;;36.25;33.45;;;0.00;79.30;;;;;;5094196;28;20294;-77
2021/03/08 01:43:05;;;;;;;34.90;32.30;;;-0.10;79.10;;;;;;5093957;28;20199;-77
2021/03/08 01:45:32;;;;;;;37.15;34.17;;;-0.10;79.00;;;;;;5094263;28;20198;-76
2021/03/08 01:47:59;;;;;;;38.05;34.75;;;-0.10;79.10;;;;;;5093900;28;20192;-77
2021/03/08 01:50:30;;;;;;;38.28;35.20;;;-0.10;78.90;;;;;;5094123;28;20196;-76
2021/03/08 01:52:57;;;;;;;38.35;35.25;;;-0.10;78.50;;;;;;5094254;28;20195;-77
2021/03/08 01:55:24;;;;;;;39.00;35.80;;;-0.20;79.00;;;;;;5094060;28;20195;-77
2021/03/08 01:57:51;;;;;;;36.90;34.00;;;-0.40;79.60;;;;;;5093850;28;20224;-77
2021/03/08 02:00:18;;;;;;;37.05;34.05;;;-0.30;79.70;;;;;;5094017;28;20219;-77
2021/03/08 02:02:46;;;;;;;39.22;36.10;;;-0.30;79.80;;;;;;5093703;28;20665;-76
2021/03/08 02:05:16;;;;;;;36.63;33.67;;;-0.30;80.10;;;;;;5093856;28;20267;-76
2021/03/08 02:07:43;;;;;;;37.58;34.47;;;-0.40;79.90;;;;;;5093558;28;20215;-77
2021/03/08 02:10:11;;;;;;;38.35;35.17;;;-0.40;80.10;;;;;;5093622;28;20211;-77
2021/03/08 02:12:50;;;;;;;38.90;35.60;;;-0.50;80.40;;;;;;5093685;28;20191;-76
2021/03/08 02:15:32;;;;;;;38.22;35.05;;;-0.40;80.50;;;;;;5093789;28;20195;-77
2021/03/08 02:18:05;;;;;;;38.20;35.15;;;-0.40;80.50;;;;;;5092654;28;20205;-77
2021/03/08 02:20:51;;;;;;;37.75;34.88;;;-0.50;80.50;;;;;;5093543;28;20223;-77
2021/03/08 02:23:45;;;;;;;38.72;35.63;;;-0.40;80.50;;;;;;5093548;28;20661;-77
2021/03/08 02:26:42;;;;;;;37.85;34.65;;;-0.40;80.30;;;;;;5093263;28;20199;-77
2021/03/08 02:29:46;;;;;;;36.63;33.63;;;-0.40;80.20;;;;;;5093293;28;20211;-77
2021/03/08 02:32:15;;;;;;;37.20;34.03;;;-0.50;80.30;;;;;;5093449;28;20202;-77
2021/03/08 02:34:48;;;;;;;35.88;33.13;;;-0.50;80.30;;;;;;5093319;28;20207;-77
2021/03/08 02:37:19;;;;;;;37.53;34.50;;;-0.50;80.70;;;;;;5092989;28;20213;-77
2021/03/08 02:39:48;;;;;;;37.97;34.83;;;-0.50;80.70;;;;;;5093150;28;20223;-77
2021/03/08 02:42:20;;;;;;;38.47;35.13;;;-0.40;80.60;;;;;;5092886;28;20196;-77
2021/03/08 02:44:48;;;;;;;1226.10;175.88;;;-0.40;80.50;;;;;;5093174;28;20656;-77
2021/03/08 02:47:18;;;;;;;37.65;34.60;;;-0.40;82.10;;;;;;5092695;28;20199;-76
2021/03/08 02:49:46;;;;;;;39.05;35.85;;;-0.40;82.50;;;;;;5092916;28;20219;-76
2021/03/08 02:52:16;;;;;;;458.00;83.13;;;-0.40;82.80;;;;;;5093036;28;20195;-77
2021/03/08 02:54:48;;;;;;;37.47;34.33;;;-0.40;84.30;;;;;;5092971;28;20695;-77
2021/03/08 02:57:20;;;;;;;36.80;33.70;;;-0.40;82.40;;;;;;5092861;28;20210;-77
2021/03/08 02:59:48;;;;;;;37.30;34.40;;;-0.40;81.20;;;;;;5092793;28;20260;-76
2021/03/08 03:02:17;;;;;;;36.85;34.05;;;-0.30;80.70;;;;;;5092968;28;20191;-77
2021/03/08 03:04:46;;;;;;;36.90;33.85;;;-0.40;79.70;;;;;;5092739;28;20707;-76
2021/03/08 03:07:14;;;;;;;36.40;33.53;;;-0.40;80.20;;;;;;5092713;28;20192;-77
2021/03/08 03:09:43;;;;;;;37.38;34.38;;;-0.60;80.60;;;;;;5092793;28;20211;-77
2021/03/08 03:12:11;;;;;;;37.20;33.90;;;-0.60;83.40;;;;;;5092745;28;20222;-77
2021/03/08 03:14:39;;;;;;;38.15;34.95;;;-0.60;81.40;;;;;;5092666;28;20199;-76
2021/03/08 03:17:08;;;;;;;36.40;33.50;;;-0.70;80.50;;;;;;5092499;28;20234;-77
2021/03/08 03:19:38;;;;;;;38.35;35.25;;;-0.70;80.40;;;;;;5092681;28;20222;-77
2021/03/08 03:22:06;;;;;;;35.72;33.03;;;-0.60;80.00;;;;;;5092558;28;20223;-77
2021/03/08 03:24:34;;;;;;;229.73;54.58;;;-0.60;79.60;;;;;;5092737;28;20660;-77
2021/03/08 03:27:03;;;;;;;39.03;35.67;;;-0.70;86.60;;;;;;5092441;28;20192;-76
2021/03/08 03:29:30;;;;;;;38.00;34.90;;;-0.70;88.90;;;;;;5095946;28;20219;-77
2021/03/08 03:31:57;;;;;;;38.30;34.65;;;-0.70;86.40;;;;;;5096869;28;20198;-77
2021/03/08 03:34:24;;;;;;;36.97;34.05;;;-0.70;83.70;;;;;;5096894;28;20195;-77
2021/03/08 03:36:52;;;;;;;37.58;34.55;;;-0.70;82.60;;;;;;5096438;28;20602;-77
2021/03/08 03:39:19;;;;;;;37.15;34.35;;;-0.70;81.60;;;;;;5096504;28;20747;-76
2021/03/08 03:41:46;;;;;;;36.25;33.55;;;-0.70;81.20;;;;;;5096253;28;20211;-77
2021/03/08 03:44:13;;;;;;;34.03;31.50;;;-0.80;80.50;;;;;;5096725;28;20234;-76
2021/03/08 03:46:41;;;;;;;38.95;35.75;;;-0.90;81.40;;;;;;5096127;28;20199;-76
2021/03/08 03:49:08;;;;;;;39.22;35.92;;;-0.90;81.30;;;;;;5096387;28;20287;-77
2021/03/08 03:51:34;;;;;;;37.50;34.50;;;-1.00;81.50;;;;;;5096459;28;20195;-77
2021/03/08 03:54:02;;;;;;;37.22;34.28;;;-1.00;81.80;;;;;;5096415;28;20199;-77
2021/03/08 03:56:31;;;;;;;38.47;35.22;;;-1.00;81.90;;;;;;5096075;28;20225;-76
2021/03/08 03:59:02;;;;;;;36.83;33.85;;;-1.10;81.60;;;;;;5096332;28;20272;-77
2021/03/08 04:01:34;;;;;;;38.75;35.25;;;-1.00;81.40;;;;;;5096190;28;20215;-77
2021/03/08 04:04:03;;;;;;;40.13;36.92;;;-1.00;81.10;;;;;;5096254;28;20218;-76
2021/03/08 04:06:33;;;;;;;39.85;36.75;;;-1.00;81.10;;;;;;5095958;28;20195;-77
2021/03/08 04:09:00;;;;;;;39.15;35.85;;;-1.00;81.00;;;;;;5095963;28;20696;-77
2021/03/08 04:11:31;;;;;;;40.88;37.15;;;-1.00;81.10;;;;;;5095905;28;20199;-76
2021/03/08 04:14:00;;;;;;;40.35;36.95;;;-1.00;80.90;;;;;;5096152;28;20686;-76
2021/03/08 04:16:29;;;;;;;41.22;38.00;;;-1.00;81.00;;;;;;5095741;28;20191;-76
2021/03/08 04:18:56;;;;;;;40.63;37.55;;;-1.10;80.80;;;;;;5095952;28;20214;-77
2021/03/08 04:21:23;;;;;;;37.53;34.53;;;-1.10;81.10;;;;;;5095677;28;20735;-76
2021/03/08 04:23:50;;;;;;;40.17;36.70;;;-1.20;81.40;;;;;;5095910;28;20195;-76
2021/03/08 04:26:18;;;;;;;39.97;36.60;;;-1.20;82.00;;;;;;5095572;28;20226;-76
2021/03/08 04:28:46;;;;;;;38.50;35.50;;;-1.20;81.70;;;;;;5095657;28;20227;-76
2021/03/08 04:31:14;;;;;;;40.65;37.45;;;-1.20;82.20;;;;;;5095669;28;20274;-77
2021/03/08 04:33:42;;;;;;;38.22;35.25;;;-1.30;84.00;;;;;;5095691;28;20199;-76
2021/03/08 04:36:12;;;;;;;38.40;35.40;;;-1.20;87.60;;;;;;5095479;28;20203;-76
2021/03/08 04:38:40;;;;;;;38.10;34.85;;;-1.30;85.40;;;;;;5095534;28;20312;-77
2021/03/08 04:41:07;;;;;;;41.45;38.20;;;-1.20;84.20;;;;;;5094264;28;20211;-76
2021/03/08 04:43:35;;;;;;;37.08;34.25;;;-1.20;84.80;;;;;;5095389;28;20682;-77
2021/03/08 04:46:03;;;;;;;39.85;36.55;;;-1.30;83.00;;;;;;5095378;28;20312;-76
2021/03/08 04:48:30;;;;;;;41.10;37.70;;;-1.30;82.60;;;;;;5094956;28;20224;-77
2021/03/08 04:50:57;;;;;;;39.30;35.90;;;-1.20;82.20;;;;;;5095302;28;20665;-76
2021/03/08 04:53:24;;;;;;;38.53;35.05;;;-1.30;81.70;;;;;;5095270;28;20255;-77
2021/03/08 04:55:53;;;;;;;39.35;36.33;;;-1.30;81.80;;;;;;5095059;28;20199;-77
2021/03/08 04:58:20;;;;;;;38.83;35.72;;;-1.30;82.00;;;;;;5095146;28;20211;-77
2021/03/08 05:00:46;;;;;;;37.80;34.80;;;-1.40;82.00;;;;;;5094854;28;20719;-76
2021/03/08 05:03:15;;;;;;;38.92;35.92;;;-1.30;81.80;;;;;;5094910;28;20268;-77
2021/03/08 05:05:43;;;;;;;41.40;38.05;;;-1.30;81.50;;;;;;5094962;28;20291;-76
2021/03/08 05:08:12;;;;;;;40.17;37.17;;;-1.40;81.60;;;;;;5094872;28;20195;-76
2021/03/08 05:10:40;;;;;;;40.17;36.88;;;-1.40;81.80;;;;;;5094973;28;20660;-77
2021/03/08 05:13:08;;;;;;;40.70;37.40;;;-1.50;82.10;;;;;;5094693;28;20755;-77
2021/03/08 05:15:36;;;;;;;39.85;36.67;;;-1.50;82.20;;;;;;5094589;28;20191;-77
2021/03/08 05:18:03;;;;;;;39.63;36.72;;;-1.50;82.20;;;;;;5094675;28;20655;-77
2021/03/08 05:20:31;;;;;;;38.08;34.92;;;-1.40;82.10;;;;;;5094804;28;20222;-76
2021/03/08 05:23:00;;;;;;;41.45;37.90;;;-1.40;82.00;;;;;;5094695;28;20560;-77
2021/03/08 05:25:28;;;;;;;41.35;38.20;;;-1.40;81.90;;;;;;5094337;28;20647;-76
2021/03/08 05:27:55;;;;;;;39.10;35.90;;;-1.40;81.60;;;;;;5094478;28;20199;-76
2021/03/08 05:30:23;;;;;;;39.42;36.33;;;-1.30;81.40;;;;;;5094562;28;20207;-76
2021/03/08 05:32:53;;;;;;;38.42;35.13;;;-1.30;81.40;;;;;;5094602;28;20289;-77
2021/03/08 05:35:21;;;;;;;42.58;39.40;;;-1.30;81.40;;;;;;5094527;28;20196;-77
2021/03/08 05:37:49;;;;;;;39.08;35.97;;;-1.40;81.30;;;;;;5094166;28;20194;-77
2021/03/08 05:40:26;;;;;;;40.78;37.35;;;-1.40;81.50;;;;;;5094464;28;20218;-76
2021/03/08 05:42:59;;;;;;;38.15;34.85;;;-1.50;81.80;;;;;;5094194;28;20201;-76
2021/03/08 05:45:31;;;;;;;40.85;37.50;;;-1.60;82.30;;;;;;5094371;28;20259;-76
2021/03/08 05:48:20;;;;;;;40.45;37.00;;;-1.60;82.60;;;;;;5093911;28;20609;-76
2021/03/08 05:51:24;;;;;;;39.13;35.75;;;-1.70;82.80;;;;;;5094020;28;20602;-76
2021/03/08 05:54:07;;;;;;;41.72;37.92;;;-1.60;82.50;;;;;;5094077;28;20200;-76
2021/03/08 05:56:47;;;;;;;40.17;36.75;;;-1.60;82.20;;;;;;5093939;28;20195;-76
2021/03/08 05:59:38;;;;;;;41.08;37.67;;;-1.60;82.40;;;;;;5093839;28;20225;-76
2021/03/08 06:02:39;;;;;;;42.67;39.17;;;-1.70;82.70;;;;;;5093820;28;20225;-76
2021/03/08 06:05:31;;;;;;;43.95;40.47;;;-1.70;83.00;;;;;;5078338;28;20205;-76
2021/03/08 06:08:45;;;;;;;41.05;37.75;;;-1.70;83.20;;;;;;5093655;28;20543;-76
2021/03/08 06:11:14;;;;;;;40.05;36.60;;;-1.60;82.80;;;;;;5093799;28;20191;-76
2021/03/08 06:13:45;;;;;;;47.83;43.55;;;-1.60;82.60;;;;;;5093724;28;20677;-77
2021/03/08 06:16:16;;;;;;;42.80;38.70;;;-1.60;82.60;;;;;;5093543;28;20665;-76
2021/03/08 06:18:46;;;;;;;39.88;36.72;;;-1.50;82.40;;;;;;5093588;28;20616;-76
2021/03/08 06:21:15;;;;;;;44.17;40.67;;;-1.40;82.10;;;;;;5093634;28;20225;-76
2021/03/08 06:23:42;;;;;;;41.30;37.40;;;-1.40;82.20;;;;;;5093629;28;20203;-76
2021/03/08 06:26:11;;;;;;;41.95;38.47;;;-1.40;82.60;;;;;;5093328;28;20202;-76
2021/03/08 06:28:38;;;;;;;40.97;37.67;;;-1.40;84.80;;;;;;5093341;28;20219;-76
2021/03/08 06:31:04;;;;;;;42.55;38.78;;;-1.30;83.70;;;;;;5093490;28;20201;-76
2021/03/08 06:33:31;;;;;;;43.95;40.38;;;-1.20;83.00;;;;;;5093498;28;20294;-76
2021/03/08 06:36:00;;;;;;;44.47;40.83;;;-1.20;82.30;;;;;;5093260;28;20199;-76
2021/03/08 06:38:28;;;;;;;43.85;40.15;;;-1.10;82.30;;;;;;5093156;28;20218;-76
2021/03/08 06:40:54;;;;;;;46.45;41.95;;;-1.10;87.20;;;;;;5093066;28;20225;-76
2021/03/08 06:43:21;;;;;;;41.10;37.65;;;-1.10;88.60;;;;;;5092868;28;20688;-76
2021/03/08 06:45:48;;;;;;;43.63;39.95;;;-1.10;90.50;;;;;;5093125;28;20206;-76
2021/03/08 06:48:15;;;;;;;44.10;40.30;;;-1.10;87.00;;;;;;5092858;28;20241;-76
2021/03/08 06:50:41;;;;;;;44.38;40.83;;;-1.00;84.90;;;;;;5093135;28;20198;-76
2021/03/08 06:53:08;;;;;;;42.08;38.15;;;-0.90;84.70;;;;;;5093051;28;20669;-76
2021/03/08 06:55:35;;;;;;;42.17;38.42;;;-0.80;83.10;;;;;;5093058;28;20196;-77
2021/03/08 06:58:18;;;;;;;43.30;39.70;;;-0.80;82.40;;;;;;5092870;28;20229;-76
2021/03/08 07:00:44;;;;;;;45.45;41.85;;;-0.80;82.20;;;;;;5092851;28;20219;-76
2021/03/08 07:03:33;;;;;;;41.55;38.05;;;-0.60;82.60;;;;;;5092208;28;20203;-76
2021/03/08 07:06:16;;;;;;;43.58;39.85;;;-0.50;81.90;;;;;;5092733;28;20665;-76
2021/03/08 07:08:44;;;;;;;44.05;40.20;;;-0.50;81.30;;;;;;5092813;28;20266;-77
2021/03/08 07:11:15;;;;;;;41.83;38.42;;;-0.30;80.90;;;;;;5092814;28;20191;-77
2021/03/08 07:13:42;;;;;;;43.72;39.40;;;-0.20;80.30;;;;;;5092960;28;20226;-76
2021/03/08 07:16:08;;;;;;;42.45;38.83;;;-0.10;80.00;;;;;;5092579;28;20199;-77
2021/03/08 07:18:36;;;;;;;43.45;39.45;;;-0.10;80.40;;;;;;5092623;28;20227;-77
2021/03/08 07:21:16;;;;;;;42.67;39.03;;;0.00;80.10;;;;;;5092770;28;20310;-77
2021/03/08 07:23:44;;;;;;;44.15;40.40;;;0.00;79.90;;;;;;5092687;28;20672;-76
2021/03/08 07:26:12;;;;;;;42.80;38.70;;;0.10;80.00;;;;;;5092525;28;20206;-76
2021/03/08 07:28:39;;;;;;;43.40;40.00;;;0.20;79.70;;;;;;5092519;28;20272;-77
2021/03/08 07:31:06;;;;;;;45.97;42.08;;;0.20;79.40;;;;;;5092449;28;20662;-77
2021/03/08 07:33:32;;;;;;;40.75;37.50;;;0.30;79.00;;;;;;5092570;28;20294;-77
2021/03/08 07:36:00;;;;;;;43.08;39.40;;;0.40;79.00;;;;;;5092359;28;20195;-76
2021/03/08 07:38:32;;;;;;;43.70;40.10;;;0.50;78.90;;;;;;5092348;28;20222;-76
2021/03/08 07:41:13;;;;;;;44.60;40.60;;;0.70;79.20;;;;;;5092551;28;20307;-77
2021/03/08 07:43:40;;;;;;;46.65;42.55;;;0.70;81.70;;;;;;5090480;28;20201;-77
2021/03/08 07:46:24;;;;;;;44.72;40.70;;;0.80;80.30;;;;;;5092403;28;20196;-77
2021/03/08 07:48:51;;;;;;;45.13;41.03;;;0.90;80.30;;;;;;5092515;28;20229;-77
2021/03/08 07:51:18;;;;;;;47.05;42.92;;;1.00;82.50;;;;;;5092482;28;20200;-77
2021/03/08 07:53:44;;;;;;;43.22;39.60;;;1.20;80.70;;;;;;5092453;28;20196;-77
2021/03/08 07:56:11;;;;;;;44.58;40.70;;;1.20;78.70;;;;;;5092212;28;20200;-77
2021/03/08 07:58:39;;;;;;;44.95;41.00;;;1.40;78.70;;;;;;5092275;28;20574;-77
2021/03/08 08:01:07;;;;;;;45.95;41.50;;;1.50;77.90;;;;;;5092259;28;20703;-77
2021/03/08 08:03:35;;;;;;;44.80;40.83;;;1.60;77.90;;;;;;5092170;28;20213;-77
2021/03/08 08:06:02;;;;;;;44.70;40.75;;;1.60;76.70;;;;;;5092131;28;20231;-77
2021/03/08 08:08:31;;;;;;;41.40;37.65;;;1.70;76.50;;;;;;5092388;28;20228;-77
2021/03/08 08:11:00;;;;;;;42.35;38.35;;;1.80;75.40;;;;;;5092325;28;20200;-77
2021/03/08 08:13:30;;;;;;;42.63;38.83;;;2.10;74.70;;;;;;5092241;28;20565;-77
2021/03/08 08:15:57;;;;;;;43.13;39.42;;;2.20;74.00;;;;;;5094253;28;20197;-77
2021/03/08 08:18:26;;;;;;;43.50;39.80;;;2.00;73.90;;;;;;5095963;28;20225;-77
2021/03/08 08:20:55;;;;;;;45.38;41.17;;;2.10;74.10;;;;;;5095733;28;20221;-77
2021/03/08 08:23:30;;;;;;;43.38;39.42;;;2.30;73.40;;;;;;5095932;28;20670;-77
2021/03/08 08:25:58;;;;;;;41.58;38.03;;;2.20;73.20;;;;;;5095773;28;20355;-77
2021/03/08 08:28:25;;;;;;;43.75;39.88;;;2.30;72.90;;;;;;5095771;28;20211;-77
2021/03/08 08:30:59;;;;;;;46.35;42.50;;;2.30;72.40;;;;;;5095616;28;20187;-77
2021/03/08 08:33:30;;;;;;;45.75;42.28;;;2.20;72.90;;;;;;5095693;28;20190;-77
2021/03/08 08:36:17;;;;;;;42.58;38.90;;;2.40;73.00;;;;;;5095666;28;20466;-77
2021/03/08 08:39:14;;;;;;;41.35;38.05;;;2.60;72.30;;;;;;5095484;28;20302;-77
2021/03/08 08:41:43;;;;;;;43.90;40.00;;;2.60;72.10;;;;;;5095268;28;20279;-77
2021/03/08 08:44:37;;;;;;;42.22;38.72;;;2.60;71.90;;;;;;5095486;28;20198;-77
2021/03/08 08:47:14;;;;;;;42.20;38.70;;;2.70;71.70;;;;;;5095269;28;20203;-77
2021/03/08 08:49:41;;;;;;;41.50;38.08;;;2.80;71.60;;;;;;5095367;28;20218;-77
2021/03/08 08:52:08;;;;;;;41.45;38.05;;;3.00;71.10;;;;;;5095202;28;20188;-77
2021/03/08 08:54:53;;;;;;;43.30;39.47;;;2.90;70.60;;;;;;5095302;28;20206;-77
2021/03/08 08:57:20;;;;;;;41.30;37.88;;;3.10;70.60;;;;;;5095320;28;20198;-77
2021/03/08 09:00:14;;;;;;;44.97;41.47;;;3.30;70.00;;;;;;5095149;28;20222;-77
2021/03/08 09:02:41;;;;;;;40.70;37.42;;;3.50;69.20;;;;;;5095012;28;20219;-77
2021/03/08 09:05:40;;;;;;;40.50;37.30;;;3.30;69.10;;;;;;5094994;28;20229;-77
2021/03/08 09:08:31;;;;;;;43.88;40.17;;;3.40;68.80;;;;;;5095042;28;20643;-77
2021/03/08 09:11:01;;;;;;;43.35;39.70;;;3.40;69.50;;;;;;5094984;28;20200;-77
2021/03/08 09:13:28;;;;;;;41.15;37.70;;;3.50;69.20;;;;;;5094921;28;20192;-77
2021/03/08 09:15:58;;;;;;;41.88;38.15;;;3.70;72.00;;;;;;5094846;28;20198;-76
2021/03/08 09:18:35;;;;;;;41.92;38.55;;;3.60;73.50;;;;;;5094807;28;20258;-77
2021/03/08 09:21:26;;;;;;;42.83;39.42;;;3.90;70.10;;;;;;5094670;28;20214;-77
2021/03/08 09:23:52;;;;;;;41.05;37.88;;;3.90;68.90;;;;;;5079449;28;20199;-77
2021/03/08 09:26:18;;;;;;;40.38;37.17;;;4.10;67.50;;;;;;5094134;28;20199;-77
2021/03/08 09:28:50;;;;;;;40.08;37.03;;;4.10;66.90;;;;;;5094609;28;20219;-77
2021/03/08 09:31:21;;;;;;;41.85;38.55;;;3.80;67.80;;;;;;5094664;28;20217;-77
2021/03/08 09:33:47;;;;;;;39.78;36.55;;;3.70;71.00;;;;;;5094398;28;20590;-77
2021/03/08 09:36:14;;;;;;;42.08;38.67;;;3.80;74.00;;;;;;5094231;28;20606;-77
2021/03/08 09:38:40;;;;;;;42.92;39.33;;;3.90;70.50;;;;;;5094379;28;20254;-77
2021/03/08 09:41:07;;;;;;;40.42;37.33;;;4.00;67.90;;;;;;5094227;28;20292;-77
2021/03/08 09:43:35;;;;;;;43.20;39.90;;;3.80;67.70;;;;;;5093958;28;20199;-77
2021/03/08 09:46:03;;;;;;;40.55;37.28;;;3.90;74.70;;;;;;5094273;28;20278;-77
2021/03/08 09:48:31;;;;;;;41.00;37.75;;;4.00;68.00;;;;;;5093945;28;20223;-77
2021/03/08 09:51:06;;;;;;;40.08;36.92;;;3.90;67.00;;;;;;5094163;28;20226;-77
2021/03/08 09:53:34;;;;;;;39.17;36.25;;;4.20;66.70;;;;;;5094118;28;20226;-77
2021/03/08 09:56:09;;;;;;;40.00;36.78;;;4.20;65.30;;;;;;5093944;28;20195;-77
2021/03/08 09:58:36;;;;;;;39.13;36.15;;;4.40;65.00;;;;;;5093886;28;20211;-77
2021/03/08 10:01:13;;;;;;;41.35;38.25;;;4.30;64.40;;;;;;5093847;28;20592;-78
2021/03/08 10:03:39;;;;;;;39.35;36.42;;;4.40;64.50;;;;;;5093895;28;20203;-77
2021/03/08 10:06:06;;;;;;;39.30;36.25;;;4.60;64.90;;;;;;5093772;28;20203;-77
2021/03/08 10:08:32;;;;;;;38.15;35.17;;;4.60;64.10;;;;;;5093760;28;20712;-77
2021/03/08 10:10:59;;;;;;;40.50;37.60;;;4.70;63.90;;;;;;5093875;28;20191;-77
2021/03/08 10:13:27;;;;;;;39.25;36.35;;;4.50;64.00;;;;;;5093637;28;20199;-77
2021/03/08 10:15:55;;;;;;;41.47;38.17;;;4.40;64.10;;;;;;5093524;28;20286;-77
2021/03/08 10:18:24;;;;;;;42.45;38.63;;;4.50;64.30;;;;;;5093713;28;20215;-77
2021/03/08 10:20:54;;;;;;;39.88;36.78;;;4.60;64.30;;;;;;5093562;28;20244;-77
2021/03/08 10:23:23;;;;;;;39.17;35.95;;;4.70;63.60;;;;;;5093691;28;20579;-77
2021/03/08 10:25:50;;;;;;;38.28;35.38;;;4.60;63.20;;;;;;5093436;28;20221;-77
2021/03/08 10:28:18;;;;;;;39.65;36.70;;;4.60;63.70;;;;;;5093637;28;20217;-77
2021/03/08 10:30:44;;;;;;;37.40;34.72;;;4.70;64.30;;;;;;5094040;28;20195;-77
2021/03/08 10:33:13;;;;;;;38.00;35.10;;;4.70;63.30;;;;;;5093488;28;20198;-77
2021/03/08 10:35:43;;;;;;;38.60;35.70;;;4.90;63.60;;;;;;5093258;28;20206;-77
2021/03/08 10:38:10;;;;;;;38.10;35.05;;;5.10;62.60;;;;;;5092430;28;20191;-77
2021/03/08 10:40:37;;;;;;;38.50;35.75;;;5.10;61.50;;;;;;5093160;28;20195;-77
2021/03/08 10:43:04;;;;;;;37.95;35.10;;;5.20;61.60;;;;;;5092896;28;20290;-77
2021/03/08 10:45:31;;;;;;;39.58;36.50;;;5.40;60.90;;;;;;5093078;28;20191;-77
2021/03/08 10:48:08;;;;;;;35.67;33.13;;;5.60;61.50;;;;;;5092815;28;20206;-77
2021/03/08 10:50:47;;;;;;;35.78;33.15;;;5.70;57.60;;;;;;5093008;28;20221;-79
2021/03/08 10:53:16;;;;;;;38.08;35.35;;;5.60;59.00;;;;;;5093238;28;20204;-77
2021/03/08 10:55:42;;;;;;;38.30;35.60;;;5.60;59.20;;;;;;5092958;28;20262;-77
2021/03/08 10:58:10;;;;;;;36.85;34.00;;;5.70;62.00;;;;;;5093019;28;20252;-77
2021/03/08 11:00:37;;;;;;;38.13;35.25;;;6.00;58.40;;;;;;5093012;28;20222;-77
2021/03/08 11:03:04;;;;;;;38.80;35.92;;;6.00;58.40;;;;;;5092630;28;20203;-77
2021/03/08 11:05:32;;;;;;;37.05;34.75;;;5.90;60.30;;;;;;5092879;28;20204;-77
2021/03/08 11:08:00;;;;;;;36.85;34.25;;;5.90;59.50;;;;;;5092788;28;20201;-77
2021/03/08 11:10:38;;;;;;;35.67;32.75;;;6.00;58.30;;;;;;5093045;28;20191;-77
2021/03/08 11:13:06;;;;;;;35.22;32.53;;;6.10;56.90;;;;;;5092865;28;20205;-77
2021/03/08 11:15:33;;;;;;;35.65;33.22;;;6.10;56.60;;;;;;5092642;28;20199;-77
2021/03/08 11:18:00;;;;;;;34.15;31.75;;;6.10;56.10;;;;;;5092649;28;20199;-77
2021/03/08 11:20:28;;;;;;;35.70;33.03;;;6.20;57.80;;;;;;5092584;28;20551;-77
2021/03/08 11:23:01;;;;;;;35.17;32.42;;;6.30;55.90;;;;;;5092675;28;20314;-77
2021/03/08 11:25:36;;;;;;;35.55;33.15;;;6.50;54.80;;;;;;5092595;28;20653;-78
2021/03/08 11:28:05;;;;;;;36.45;33.75;;;6.60;59.20;;;;;;5092697;28;20666;-76
2021/03/08 11:30:32;;;;;;;35.65;33.25;;;6.60;54.80;;;;;;5092728;28;20272;-76
2021/03/08 11:33:00;;;;;;;36.13;33.78;;;6.50;54.40;;;;;;5092595;28;20188;-76
2021/03/08 11:35:28;;;;;;;35.72;32.92;;;6.30;54.80;;;;;;5092573;28;20290;-76
2021/03/08 11:37:59;;;;;;;35.90;32.88;;;6.40;54.90;;;;;;5092456;28;20673;-76
2021/03/08 11:40:28;;;;;;;36.45;33.75;;;6.40;55.40;;;;;;5092519;28;20245;-76
2021/03/08 11:42:55;;;;;;;34.63;32.13;;;6.30;56.00;;;;;;5092089;28;20242;-76
2021/03/08 11:45:23;;;;;;;35.25;32.75;;;6.50;55.60;;;;;;5092385;28;20204;-75
2021/03/08 11:47:54;;;;;;;35.00;32.45;;;6.60;55.30;;;;;;5091990;28;20202;-76
2021/03/08 11:50:22;;;;;;;35.10;32.40;;;6.70;54.90;;;;;;5095317;28;20196;-76
2021/03/08 11:52:48;;;;;;;34.55;31.85;;;6.90;53.80;;;;;;5096534;28;20278;-76
2021/03/08 11:55:17;;;;;;;35.55;32.95;;;6.80;53.60;;;;;;5096323;28;20283;-76
2021/03/08 11:57:44;;;;;;;35.53;32.88;;;6.60;54.50;;;;;;5096161;28;20205;-76
2021/03/08 12:00:12;;;;;;;35.83;33.13;;;6.50;55.00;;;;;;5096195;28;20225;-76
2021/03/08 12:02:38;;;;;;;36.10;33.30;;;6.50;54.70;;;;;;5096312;28;20243;-76
2021/03/08 12:05:06;;;;;;;36.20;33.70;;;6.60;54.20;;;;;;5096126;28;20207;-76
2021/03/08 12:07:34;;;;;;;34.63;32.13;;;6.80;54.30;;;;;;5096079;28;20201;-76
2021/03/08 12:10:00;;;;;;;36.70;33.90;;;6.80;53.30;;;;;;5095952;28;20587;-77
2021/03/08 12:12:28;;;;;;;35.25;32.85;;;6.90;55.90;;;;;;5096050;28;20191;-76
2021/03/08 12:14:54;;;;;;;35.40;32.88;;;7.10;53.20;;;;;;5096044;28;20325;-76
2021/03/08 12:17:21;;;;;;;35.95;33.28;;;7.20;52.40;;;;;;5095923;28;20544;-77
2021/03/08 12:19:48;;;;;;;34.90;32.50;;;7.30;51.70;;;;;;5096012;28;20215;-77
2021/03/08 12:22:14;;;;;;;34.70;31.92;;;7.40;51.30;;;;;;5095861;28;20239;-77
2021/03/08 12:24:40;;;;;;;35.75;33.15;;;7.40;51.00;;;;;;5095986;28;20202;-77
2021/03/08 12:27:07;;;;;;;35.85;33.10;;;7.40;51.20;;;;;;5095646;28;20212;-76
2021/03/08 12:29:35;;;;;;;35.58;32.97;;;7.50;51.00;;;;;;5096177;28;20321;-76
2021/03/08 12:32:01;;;;;;;35.03;32.45;;;7.40;50.40;;;;;;5096035;28;20239;-76
2021/03/08 12:34:27;;;;;;;33.95;31.52;;;7.50;51.10;;;;;;5095763;28;20199;-76
2021/03/08 12:36:54;;;;;;;34.30;31.80;;;7.60;49.50;;;;;;5095467;28;20199;-76
2021/03/08 12:39:21;;;;;;;33.67;31.35;;;7.70;49.20;;;;;;5095497;28;20344;-76
2021/03/08 12:41:47;;;;;;;34.80;32.40;;;7.80;48.20;;;;;;5095319;28;20223;-76
2021/03/08 12:44:14;;;;;;;35.33;32.72;;;7.70;48.40;;;;;;5095651;28;20207;-76
2021/03/08 12:46:41;;;;;;;35.40;32.80;;;7.80;48.50;;;;;;5095460;28;20198;-76